createdAt,value
2019-01-05T00:01:30.738Z,2.24
2019-01-05T00:04:22.885Z,2.25
2019-01-05T00:07:34.703Z,2.28
2019-01-05T00:10:29.748Z,2.30
2019-01-05T00:13:27.643Z,2.31
2019-01-05T00:16:19.168Z,2.31
2019-01-05T00:19:12.933Z,2.32
2019-01-05T00:22:23.613Z,2.33
2019-01-05T00:25:16.160Z,2.33
2019-01-05T00:28:07.236Z,2.31
2019-01-05T00:31:13.245Z,2.31
2019-01-05T00:34:11.318Z,2.32
2019-01-05T00:37:20.986Z,2.32
2019-01-05T00:40:30.194Z,2.33
2019-01-05T00:43:20.894Z,2.34
2019-01-05T00:46:20.353Z,2.34
2019-01-05T00:49:18.748Z,2.35
2019-01-05T00:52:06.866Z,2.36
2019-01-05T00:54:59.426Z,2.37
2019-01-05T00:58:12.419Z,2.37
2019-01-05T01:01:10.830Z,2.39
2019-01-05T01:04:02.038Z,2.42
2019-01-05T01:07:09.437Z,2.42
2019-01-05T01:10:13.761Z,2.44
2019-01-05T01:13:05.888Z,2.44
2019-01-05T01:16:00.286Z,2.45
2019-01-05T01:18:52.215Z,2.47
2019-01-05T01:21:46.073Z,2.46
2019-01-05T01:24:37.457Z,2.47
2019-01-05T01:27:32.092Z,2.48
2019-01-05T01:30:29.980Z,2.48
2019-01-05T01:33:26.462Z,2.50
2019-01-05T01:36:26.122Z,2.52
2019-01-05T01:39:32.467Z,2.53
2019-01-05T01:42:24.770Z,2.56
2019-01-05T01:45:20.349Z,2.57
2019-01-05T01:48:12.731Z,2.59
2019-01-05T01:51:12.304Z,2.58
2019-01-05T01:54:04.575Z,2.60
2019-01-05T01:57:05.924Z,2.63
2019-01-05T02:00:38.560Z,2.64
2019-01-05T02:03:31.876Z,2.65
2019-01-05T02:06:23.867Z,2.65
2019-01-05T02:09:17.958Z,2.68
2019-01-05T02:12:10.010Z,2.71
2019-01-05T02:15:17.130Z,2.72
2019-01-05T02:19:05.960Z,2.75
2019-01-05T02:22:56.232Z,2.76
2019-01-05T02:27:07.022Z,2.77
2019-01-05T02:31:19.943Z,2.76
2019-01-05T02:35:10.222Z,2.77
2019-01-05T02:39:02.846Z,2.78
2019-01-05T02:42:48.216Z,2.77
2019-01-05T02:46:18.851Z,2.78
2019-01-05T02:50:13.836Z,2.80
2019-01-05T02:54:15.750Z,2.79
2019-01-05T02:58:21.607Z,2.78
2019-01-05T03:02:31.066Z,2.81
2019-01-05T03:06:23.151Z,2.81
2019-01-05T03:10:11.098Z,2.84
2019-01-05T03:14:02.556Z,2.87
2019-01-05T03:17:54.295Z,2.92
2019-01-05T03:22:19.884Z,2.92
2019-01-05T03:25:46.374Z,2.92
2019-01-05T03:29:55.316Z,2.93
2019-01-05T03:33:17.392Z,2.94
2019-01-05T03:37:42.020Z,2.97
2019-01-05T03:41:50.128Z,3.00
2019-01-05T03:45:37.585Z,3.02
2019-01-05T03:49:43.605Z,3.03
2019-01-05T03:53:05.041Z,3.03
2019-01-05T03:57:01.924Z,3.04
2019-01-05T04:01:03.978Z,3.03
2019-01-05T04:04:49.326Z,3.02
2019-01-05T04:08:39.312Z,3.03
2019-01-05T04:12:34.704Z,3.04
2019-01-05T04:16:07.902Z,3.08
2019-01-05T04:19:58.598Z,3.05
2019-01-05T04:24:09.724Z,3.04
2019-01-05T04:28:28.267Z,3.01
2019-01-05T04:32:18.515Z,3.03
2019-01-05T04:36:15.727Z,3.02
2019-01-05T04:40:16.247Z,3.02
2019-01-05T04:44:00.828Z,3.04
2019-01-05T04:48:13.277Z,3.08
2019-01-05T04:51:59.609Z,3.10
2019-01-05T04:55:51.311Z,3.11
2019-01-05T04:59:42.655Z,3.18
2019-01-05T05:03:52.307Z,3.20
2019-01-05T05:07:47.618Z,3.25
2019-01-05T05:12:02.447Z,3.24
2019-01-05T05:16:00.691Z,3.46
2019-01-05T05:19:47.538Z,3.46
2019-01-05T05:23:39.602Z,3.50
2019-01-05T05:27:53.667Z,3.50
2019-01-05T05:32:19.283Z,3.55
2019-01-05T05:36:13.367Z,3.57
2019-01-05T05:40:01.660Z,3.56
2019-01-05T05:44:08.108Z,3.62
2019-01-05T05:47:54.749Z,3.67
2019-01-05T05:52:06.065Z,3.64
2019-01-05T05:55:57.267Z,3.75
2019-01-05T05:59:48.695Z,3.65
2019-01-05T06:03:39.011Z,3.65
2019-01-05T06:07:44.761Z,3.65
2019-01-05T06:11:44.466Z,3.66
2019-01-05T06:16:05.988Z,3.67
2019-01-05T06:20:13.357Z,3.64
2019-01-05T06:23:55.528Z,3.65
2019-01-05T06:27:53.227Z,3.66
2019-01-05T06:31:47.718Z,3.66
2019-01-05T06:35:32.496Z,3.68
2019-01-05T06:39:33.314Z,3.66
2019-01-05T06:43:28.099Z,3.62
2019-01-05T06:47:17.285Z,3.59
2019-01-05T06:51:15.313Z,3.55
2019-01-05T06:55:20.095Z,3.51
2019-01-05T06:59:24.975Z,3.47
2019-01-05T07:03:18.414Z,3.49
2019-01-05T07:07:13.673Z,3.56
2019-01-05T07:11:34.374Z,3.53
2019-01-05T07:15:10.649Z,3.49
2019-01-05T07:19:23.896Z,3.53
2019-01-05T07:23:25.985Z,3.52
2019-01-05T07:27:47.556Z,3.51
2019-01-05T07:31:34.620Z,3.51
2019-01-05T07:35:50.530Z,3.53
2019-01-05T07:39:56.127Z,3.48
2019-01-05T07:43:41.736Z,3.45
2019-01-05T07:48:11.195Z,3.45
2019-01-05T07:51:56.227Z,3.43
2019-01-05T07:55:46.769Z,3.42
2019-01-05T07:59:51.041Z,3.43
2019-01-05T08:03:42.931Z,3.43
2019-01-05T08:07:44.545Z,3.47
2019-01-05T08:11:51.219Z,3.50
2019-01-05T08:15:54.871Z,3.53
2019-01-05T08:19:43.811Z,3.51
2019-01-05T08:23:39.598Z,3.51
2019-01-05T08:28:13.352Z,3.48
2019-01-05T08:32:03.311Z,3.40
2019-01-05T08:36:18.747Z,3.34
2019-01-05T08:40:09.708Z,3.39
2019-01-05T08:43:59.541Z,3.46
2019-01-05T08:47:57.841Z,3.49
2019-01-05T08:51:33.942Z,3.52
2019-01-05T08:55:45.709Z,3.55
2019-01-05T08:59:45.986Z,3.56
2019-01-05T09:03:50.199Z,3.82
2019-01-05T09:07:39.529Z,4.02
2019-01-05T09:11:24.617Z,3.93
2019-01-05T09:15:21.927Z,3.80
2019-01-05T09:19:13.795Z,3.73
2019-01-05T09:23:26.947Z,3.74
2019-01-05T09:27:36.707Z,3.66
2019-01-05T09:31:34.585Z,3.69
2019-01-05T09:35:43.433Z,3.71
2019-01-05T09:39:45.941Z,3.74
2019-01-05T09:43:44.717Z,3.90
2019-01-05T09:47:49.731Z,4.09
2019-01-05T09:51:46.707Z,4.48
2019-01-05T09:56:05.871Z,4.58
2019-01-05T09:59:58.981Z,4.47
2019-01-05T10:03:50.619Z,4.30
2019-01-05T10:08:04.868Z,4.34
2019-01-05T10:12:25.809Z,4.36
2019-01-05T10:16:35.350Z,4.19
2019-01-05T10:20:20.390Z,4.05
2019-01-05T10:24:23.269Z,4.00
2019-01-05T10:28:28.353Z,4.04
2019-01-05T10:32:32.142Z,4.09
2019-01-05T10:36:25.513Z,4.19
2019-01-05T10:40:33.303Z,4.38
2019-01-05T10:44:10.638Z,4.39
2019-01-05T10:47:50.478Z,4.64
2019-01-05T10:51:54.530Z,4.85
2019-01-05T10:55:28.805Z,4.93
2019-01-05T10:59:19.623Z,4.81
2019-01-05T11:03:02.091Z,4.72
2019-01-05T11:07:13.412Z,4.68
2019-01-05T11:11:17.248Z,4.75
2019-01-05T11:15:07.039Z,4.69
2019-01-05T11:18:56.441Z,4.49
2019-01-05T11:23:08.649Z,4.44
2019-01-05T11:26:55.788Z,4.44
2019-01-05T11:31:01.762Z,4.46
2019-01-05T11:35:00.835Z,4.56
2019-01-05T11:39:20.769Z,4.61
2019-01-05T11:43:15.461Z,4.63
2019-01-05T11:46:56.051Z,4.65
2019-01-05T11:51:04.769Z,4.64
2019-01-05T11:55:01.159Z,4.64
2019-01-05T11:58:43.275Z,4.70
2019-01-05T12:02:48.482Z,4.74
2019-01-05T12:06:44.449Z,4.79
2019-01-05T12:10:38.682Z,4.94
2019-01-05T12:14:33.548Z,5.21
2019-01-05T12:18:46.171Z,5.26
2019-01-05T12:22:42.710Z,5.15
2019-01-05T12:27:07.679Z,4.97
2019-01-05T12:31:15.772Z,4.90
2019-01-05T12:35:24.828Z,4.81
2019-01-05T12:39:52.669Z,4.74
2019-01-05T12:44:12.552Z,4.75
2019-01-05T12:48:13.537Z,4.65
2019-01-05T12:52:16.697Z,4.28
2019-01-05T12:56:33.138Z,3.95
2019-01-05T13:00:44.233Z,3.71
2019-01-05T13:04:21.523Z,3.49
2019-01-05T13:08:22.873Z,3.37
2019-01-05T13:12:34.817Z,3.35
2019-01-05T13:16:21.611Z,3.42
2019-01-05T13:20:19.661Z,3.41
2019-01-05T13:24:00.024Z,3.37
2019-01-05T13:28:13.632Z,3.46
2019-01-05T13:32:23.660Z,3.63
2019-01-05T13:36:21.303Z,3.77
2019-01-05T13:40:22.144Z,3.80
2019-01-05T13:43:56.485Z,3.61
2019-01-05T13:48:22.270Z,3.42
2019-01-05T13:51:53.572Z,3.27
2019-01-05T13:55:02.797Z,3.13
2019-01-05T13:58:10.227Z,3.04
2019-01-05T14:01:17.894Z,3.04
2019-01-05T14:04:13.531Z,2.99
2019-01-05T14:07:15.022Z,2.90
2019-01-05T14:10:09.999Z,2.85
2019-01-05T14:13:01.850Z,2.86
2019-01-05T14:15:52.705Z,2.83
2019-01-05T14:18:51.824Z,2.80
2019-01-05T14:21:42.908Z,2.78
2019-01-05T14:24:35.536Z,2.78
2019-01-05T14:27:37.228Z,2.75
2019-01-05T14:30:43.071Z,2.71
2019-01-05T14:33:47.235Z,2.61
2019-01-05T14:36:45.171Z,2.55
2019-01-05T14:39:45.135Z,2.44
2019-01-05T14:42:36.437Z,2.40
2019-01-05T14:45:27.305Z,2.33
2019-01-05T14:48:18.267Z,2.32
2019-01-05T14:51:10.500Z,2.28
2019-01-05T14:54:00.850Z,2.23
2019-01-05T14:56:51.848Z,2.23
2019-01-05T14:59:43.305Z,2.22
2019-01-05T15:02:37.045Z,2.24
2019-01-05T15:05:41.522Z,2.20
2019-01-05T15:08:41.137Z,2.26
2019-01-05T15:11:32.813Z,2.26
2019-01-05T15:14:25.986Z,2.26
2019-01-05T15:17:32.445Z,2.25
2019-01-05T15:20:31.043Z,2.25
2019-01-05T15:23:20.183Z,2.33
2019-01-05T15:26:11.579Z,2.35
2019-01-05T15:29:05.606Z,2.35
2019-01-05T15:32:07.507Z,2.35
2019-01-05T15:34:59.004Z,2.41
2019-01-05T15:37:50.345Z,2.49
2019-01-05T15:41:01.631Z,2.53
2019-01-05T15:43:54.691Z,2.50
2019-01-05T15:46:46.414Z,2.46
2019-01-05T15:49:39.328Z,2.41
2019-01-05T15:52:34.955Z,2.35
2019-01-05T15:55:41.683Z,2.25
2019-01-05T15:58:37.245Z,2.16
2019-01-05T16:01:28.602Z,2.02
2019-01-05T16:04:19.876Z,1.91
2019-01-05T16:07:27.816Z,1.85
2019-01-05T16:10:36.250Z,1.84
2019-01-05T16:13:28.470Z,1.88
2019-01-05T16:16:30.035Z,1.92
2019-01-05T16:19:25.436Z,1.89
2019-01-05T16:22:16.863Z,1.86
2019-01-05T16:25:09.711Z,1.87
2019-01-05T16:28:02.722Z,1.90
2019-01-05T16:30:54.669Z,1.91
2019-01-05T16:33:56.869Z,1.93
2019-01-05T16:36:49.110Z,1.90
2019-01-05T16:39:50.917Z,1.85
2019-01-05T16:42:47.711Z,1.75
2019-01-05T16:45:40.672Z,1.67
2019-01-05T16:48:32.916Z,1.56
2019-01-05T16:51:31.973Z,1.46
2019-01-05T16:54:28.054Z,1.43
2019-01-05T16:57:28.023Z,1.38
2019-01-05T17:00:20.098Z,1.50
2019-01-05T17:03:22.542Z,1.56
2019-01-05T17:06:15.724Z,1.62
2019-01-05T17:09:01.894Z,1.57
2019-01-05T17:12:07.066Z,1.50
2019-01-05T17:15:09.541Z,1.46
2019-01-05T17:18:02.821Z,1.47
2019-01-05T17:21:04.673Z,1.48
2019-01-05T17:24:00.894Z,1.50
2019-01-05T17:26:54.332Z,1.55
2019-01-05T17:29:41.991Z,1.62
2019-01-05T17:32:35.369Z,1.64
2019-01-05T17:35:36.633Z,1.67
2019-01-05T17:38:48.591Z,1.71
2019-01-05T17:41:53.653Z,1.72
2019-01-05T17:44:55.724Z,1.73
2019-01-05T17:47:48.984Z,1.69
2019-01-05T17:50:41.225Z,1.69
2019-01-05T17:53:40.495Z,1.70
2019-01-05T17:56:51.271Z,1.73
2019-01-05T18:00:02.499Z,1.74
2019-01-05T18:02:57.093Z,1.81
2019-01-05T18:05:51.253Z,1.84
2019-01-05T18:08:50.956Z,1.83
2019-01-05T18:11:44.197Z,1.79
2019-01-05T18:14:49.315Z,1.75
2019-01-05T18:17:42.482Z,1.73
2019-01-05T18:20:35.468Z,1.68
2019-01-05T18:23:47.080Z,1.63
2019-01-05T18:26:51.724Z,1.63
2019-01-05T18:29:51.851Z,1.65
2019-01-05T18:32:59.667Z,1.67
2019-01-05T18:35:56.289Z,1.67
2019-01-05T18:38:44.057Z,1.69
2019-01-05T18:41:52.722Z,1.71
2019-01-05T18:44:55.229Z,1.70
2019-01-05T18:47:51.490Z,1.70
2019-01-05T18:50:48.048Z,1.68
2019-01-05T18:53:44.023Z,1.67
2019-01-05T18:56:35.563Z,1.69
2019-01-05T18:59:32.295Z,1.69
2019-01-05T19:02:25.802Z,1.68
2019-01-05T19:05:38.102Z,1.69
2019-01-05T19:08:44.989Z,1.70
2019-01-05T19:11:35.390Z,1.70
2019-01-05T19:14:27.264Z,1.71
2019-01-05T19:17:24.566Z,1.73
2019-01-05T19:20:36.160Z,1.73
2019-01-05T19:23:40.886Z,1.72
2019-01-05T19:26:32.363Z,1.71
2019-01-05T19:29:43.901Z,1.71
2019-01-05T19:32:52.031Z,1.68
2019-01-05T19:35:43.682Z,1.63
2019-01-05T19:38:35.371Z,1.58
2019-01-05T19:41:47.184Z,1.56
2019-01-05T19:44:46.702Z,1.61
2019-01-05T19:47:39.519Z,1.74
2019-01-05T19:50:27.017Z,1.86
2019-01-05T19:53:18.510Z,1.75
2019-01-05T19:56:11.450Z,1.66
2019-01-05T19:59:17.374Z,1.63
2019-01-05T20:01:57.170Z,1.57
2019-01-05T20:04:48.503Z,1.58
2019-01-05T20:07:41.379Z,1.56
2019-01-05T20:10:34.509Z,1.52
2019-01-05T20:13:46.604Z,1.51
2019-01-05T20:16:45.853Z,1.47
2019-01-05T20:19:52.100Z,1.42
2019-01-05T20:22:51.970Z,1.41
2019-01-05T20:25:43.248Z,1.36
2019-01-05T20:28:35.894Z,1.34
2019-01-05T20:31:38.298Z,1.35
2019-01-05T20:34:31.602Z,1.41
2019-01-05T20:37:24.909Z,1.47
2019-01-05T20:40:23.803Z,1.52
2019-01-05T20:43:16.714Z,1.53
2019-01-05T20:46:21.754Z,1.52
2019-01-05T20:49:28.492Z,1.51
2019-01-05T20:52:30.918Z,1.48
2019-01-05T20:55:24.010Z,1.44
2019-01-05T20:58:20.349Z,1.44
2019-01-05T21:01:12.010Z,1.42
2019-01-05T21:04:05.710Z,1.40
2019-01-05T21:07:07.551Z,1.38
2019-01-05T21:09:56.430Z,1.36
2019-01-05T21:12:49.871Z,1.38
2019-01-05T21:15:48.971Z,1.38
2019-01-05T21:18:44.783Z,1.37
2019-01-05T21:21:49.573Z,1.37
2019-01-05T21:24:45.948Z,1.40
2019-01-05T21:27:44.864Z,1.36
2019-01-05T21:30:44.213Z,1.32
2019-01-05T21:33:49.303Z,1.29
2019-01-05T21:36:36.743Z,1.28
2019-01-05T21:39:33.052Z,1.27
2019-01-05T21:42:25.991Z,1.28
2019-01-05T21:45:17.651Z,1.27
2019-01-05T21:48:07.630Z,1.23
2019-01-05T21:50:58.863Z,1.21
2019-01-05T21:53:51.379Z,1.18
2019-01-05T21:56:45.774Z,1.14
2019-01-05T21:59:37.469Z,1.09
2019-01-05T22:02:32.990Z,1.07
2019-01-05T22:05:24.923Z,1.10
2019-01-05T22:08:30.418Z,1.10
2019-01-05T22:11:22.071Z,1.14
2019-01-05T22:14:13.351Z,1.15
2019-01-05T22:17:04.563Z,1.15
2019-01-05T22:20:13.050Z,1.12
2019-01-05T22:23:04.653Z,1.11
2019-01-05T22:25:56.609Z,1.09
2019-01-05T22:28:54.811Z,1.04
2019-01-05T22:31:53.610Z,1.02
2019-01-05T22:35:04.950Z,1.02
2019-01-05T22:37:58.407Z,1.02
2019-01-05T22:40:54.143Z,1.02
2019-01-05T22:43:45.251Z,1.05
2019-01-05T22:46:37.623Z,1.03
2019-01-05T22:49:36.683Z,0.99
2019-01-05T22:52:28.103Z,0.97
2019-01-05T22:55:32.672Z,0.97
2019-01-05T22:58:24.032Z,0.97
2019-01-05T23:01:29.743Z,0.99
2019-01-05T23:04:38.757Z,0.99
2019-01-05T23:07:43.163Z,0.99
2019-01-05T23:10:35.394Z,1.00
2019-01-05T23:13:37.398Z,0.99
2019-01-05T23:16:25.584Z,0.97
2019-01-05T23:19:16.471Z,0.99
2019-01-05T23:22:23.192Z,0.97
2019-01-05T23:25:14.560Z,0.87
2019-01-05T23:28:08.820Z,0.80
2019-01-05T23:31:07.512Z,0.79
2019-01-05T23:33:59.655Z,0.78
2019-01-05T23:36:57.529Z,0.80
2019-01-05T23:39:50.070Z,0.79
2019-01-05T23:42:45.390Z,0.79
2019-01-05T23:45:44.967Z,0.80
2019-01-05T23:48:35.880Z,0.80
2019-01-05T23:51:26.967Z,0.83
2019-01-05T23:54:20.167Z,0.81
2019-01-05T23:57:11.987Z,0.81
